logo
Search for airport 
image banner adimage banner adimage banner ad
image banner ad

MMRLA - La Azufrosa

Located in San Buenaventura, Mexico

ICAO - , IATA -

Data provided by Airmate  

General information

Coordinates: N28°6'7" W102°11'47"
Elevation is 3707 feet MSL.
Magnetic variation is 5° East
View others Airports in Coahuila

Operational data

Special qualification required
Current time UTC:
Current local time:
Weather at : - ( 0 km )
METAR: KXER 180740Z AUTO 17004KT 3SM BR CLR 24/24 A3002 RMK A01
View NOTAMs / SUP AIP / TFR affecting this airport [VIEW]
Communications frequencies: [VIEW]

Runways:

RWY identifierQFULength (ft)Width (ft)SurfaceLDA (ft)
0227°462746DIRT
20207°462746DIRT

Airport contact information

Address: San Buenaventura Mexico

Satellite view of MMRLA